createdAt,value
2018-04-25T00:00:18.866Z,1006.30
2018-04-25T00:01:18.821Z,1006.30
2018-04-25T00:02:18.776Z,1006.29
2018-04-25T00:03:18.732Z,1006.23
2018-04-25T00:04:18.686Z,1006.22
2018-04-25T00:05:18.641Z,1006.19
2018-04-25T00:06:18.596Z,1006.17
2018-04-25T00:07:18.551Z,1006.12
2018-04-25T00:08:18.506Z,1006.05
2018-04-25T00:09:18.461Z,1006.06
2018-04-25T00:10:18.417Z,1006.03
2018-04-25T00:11:18.379Z,1006.05
2018-04-25T00:12:18.326Z,1006.02
2018-04-25T00:13:18.282Z,1006.03
2018-04-25T00:14:18.237Z,1005.98
2018-04-25T00:15:18.192Z,1005.99
2018-04-25T00:16:18.147Z,1005.98
2018-04-25T00:17:18.102Z,1005.98
2018-04-25T00:18:18.057Z,1006.01
2018-04-25T00:19:18.014Z,1005.96
2018-04-25T00:20:17.967Z,1005.94
2018-04-25T00:21:17.924Z,1005.92
2018-04-25T00:22:17.877Z,1005.92
2018-04-25T00:23:17.834Z,1005.89
2018-04-25T00:24:17.789Z,1005.84
2018-04-25T00:25:17.744Z,1005.76
2018-04-25T00:26:17.697Z,1005.81
2018-04-25T00:27:17.653Z,1005.83
2018-04-25T00:28:17.608Z,1005.82
2018-04-25T00:29:17.562Z,1005.82
2018-04-25T00:30:17.519Z,1005.81
2018-04-25T00:31:17.472Z,1005.77
2018-04-25T00:32:17.427Z,1005.72
2018-04-25T00:33:17.382Z,1005.73
2018-04-25T00:34:17.337Z,1005.72
2018-04-25T00:35:17.293Z,1005.69
2018-04-25T00:36:17.246Z,1005.69
2018-04-25T00:37:17.210Z,1005.70
2018-04-25T00:38:17.157Z,1005.62
2018-04-25T00:39:17.114Z,1005.67
2018-04-25T00:40:17.117Z,1005.64
2018-04-25T00:41:17.022Z,1005.61
2018-04-25T00:42:16.977Z,1005.58
2018-04-25T00:43:16.932Z,1005.54
2018-04-25T00:44:16.887Z,1005.55
2018-04-25T00:45:16.843Z,1005.53
2018-04-25T00:46:16.797Z,1005.55
2018-04-25T00:47:16.756Z,1005.49
2018-04-25T00:48:16.706Z,1005.47
2018-04-25T00:49:16.662Z,1005.48
2018-04-25T00:50:16.616Z,1005.42
2018-04-25T00:51:16.573Z,1005.38
2018-04-25T00:52:16.531Z,1005.38
2018-04-25T00:53:16.481Z,1005.37
2018-04-25T00:54:16.439Z,1005.36
2018-04-25T00:55:16.393Z,1005.37
2018-04-25T00:56:16.345Z,1005.32
2018-04-25T00:57:16.301Z,1005.32
2018-04-25T00:58:16.256Z,1005.33
2018-04-25T00:59:16.211Z,1005.33
2018-04-25T01:00:16.165Z,1005.33
2018-04-25T01:01:16.121Z,1005.30
2018-04-25T01:02:16.075Z,1005.32
2018-04-25T01:03:16.030Z,1005.34
2018-04-25T01:04:15.984Z,1005.35
2018-04-25T01:05:15.942Z,1005.32
2018-04-25T01:06:15.894Z,1005.33
2018-04-25T01:07:15.849Z,1005.28
2018-04-25T01:08:15.803Z,1005.26
2018-04-25T01:09:15.759Z,1005.21
2018-04-25T01:10:15.714Z,1005.18
2018-04-25T01:11:15.669Z,1005.20
2018-04-25T01:12:15.623Z,1005.14
2018-04-25T01:13:15.578Z,1005.16
2018-04-25T01:14:15.533Z,1005.16
2018-04-25T01:15:15.489Z,1005.15
2018-04-25T01:16:15.442Z,1005.14
2018-04-25T01:17:15.398Z,1005.11
2018-04-25T01:18:15.353Z,1005.09
2018-04-25T01:19:15.308Z,1005.10
2018-04-25T01:20:15.262Z,1005.03
2018-04-25T01:21:15.220Z,1005.04
2018-04-25T01:22:15.172Z,1005.03
2018-04-25T01:23:15.127Z,1005.02
2018-04-25T01:24:15.081Z,1004.99
2018-04-25T01:25:15.123Z,1004.95
2018-04-25T01:26:14.991Z,1004.91
2018-04-25T01:27:14.945Z,1004.93
2018-04-25T01:28:14.900Z,1004.88
2018-04-25T01:29:14.855Z,1004.84
2018-04-25T01:30:14.809Z,1004.88
2018-04-25T01:31:14.765Z,1004.81
2018-04-25T01:32:14.718Z,1004.72
2018-04-25T01:33:14.681Z,1004.73
2018-04-25T01:34:14.629Z,1004.73
2018-04-25T01:35:14.583Z,1004.69
2018-04-25T01:36:14.539Z,1004.65
2018-04-25T01:37:14.492Z,1004.68
2018-04-25T01:38:14.447Z,1004.67
2018-04-25T01:39:14.401Z,1004.64
2018-04-25T01:40:14.355Z,1004.60
2018-04-25T01:41:14.310Z,1004.67
2018-04-25T01:42:14.315Z,1004.69
2018-04-25T01:43:14.220Z,1004.67
2018-04-25T01:44:14.174Z,1004.57
2018-04-25T01:45:14.130Z,1004.54
2018-04-25T01:46:14.083Z,1004.55
2018-04-25T01:47:14.091Z,1004.55
2018-04-25T01:48:13.992Z,1004.51
2018-04-25T01:49:13.947Z,1004.49
2018-04-25T01:50:13.901Z,1004.42
2018-04-25T01:51:13.856Z,1004.39
2018-04-25T01:52:13.809Z,1004.34
2018-04-25T01:53:13.764Z,1004.31
2018-04-25T01:54:13.719Z,1004.32
2018-04-25T01:55:13.675Z,1004.35
2018-04-25T01:56:13.628Z,1004.28
2018-04-25T01:57:13.582Z,1004.27
2018-04-25T01:58:13.538Z,1004.21
2018-04-25T01:59:13.493Z,1004.18
2018-04-25T02:00:13.446Z,1004.18
2018-04-25T02:01:13.407Z,1004.17
2018-04-25T02:02:13.355Z,1004.18
2018-04-25T02:03:13.310Z,1004.10
2018-04-25T02:04:13.264Z,1004.11
2018-04-25T02:05:13.219Z,1004.09
2018-04-25T02:06:13.174Z,1004.10
2018-04-25T02:07:13.129Z,1004.14
2018-04-25T02:08:13.087Z,1004.13
2018-04-25T02:09:13.037Z,1004.10
2018-04-25T02:10:12.992Z,1004.12
2018-04-25T02:11:12.947Z,1004.17
2018-04-25T02:12:12.902Z,1004.15
2018-04-25T02:13:12.856Z,1004.13
2018-04-25T02:14:12.811Z,1004.08
2018-04-25T02:15:12.766Z,1004.05
2018-04-25T02:16:12.720Z,1004.03
2018-04-25T02:17:12.675Z,1003.99
2018-04-25T02:18:12.630Z,1004.02
2018-04-25T02:19:12.585Z,1004.03
2018-04-25T02:20:12.550Z,1004.00
2018-04-25T02:21:12.494Z,1003.91
2018-04-25T02:22:12.452Z,1003.87
2018-04-25T02:23:12.406Z,1003.77
2018-04-25T02:24:12.358Z,1003.76
2018-04-25T02:25:12.313Z,1003.77
2018-04-25T02:26:12.268Z,1003.70
2018-04-25T02:27:12.224Z,1003.66
2018-04-25T02:28:12.177Z,1003.66
2018-04-25T02:29:12.132Z,1003.59
2018-04-25T02:30:12.092Z,1003.55
2018-04-25T02:31:12.044Z,1003.60
2018-04-25T02:32:11.995Z,1003.56
2018-04-25T02:33:11.951Z,1003.51
2018-04-25T02:34:11.905Z,1003.47
2018-04-25T02:35:11.860Z,1003.45
2018-04-25T02:36:11.814Z,1003.44
2018-04-25T02:37:11.769Z,1003.36
2018-04-25T02:38:11.723Z,1003.38
2018-04-25T02:39:11.680Z,1003.38
2018-04-25T02:40:11.635Z,1003.32
2018-04-25T02:41:11.588Z,1003.29
2018-04-25T02:42:11.541Z,1003.28
2018-04-25T02:43:11.497Z,1003.28
2018-04-25T02:44:11.450Z,1003.26
2018-04-25T02:45:11.409Z,1003.28
2018-04-25T02:46:11.362Z,1003.21
2018-04-25T02:47:11.314Z,1003.26
2018-04-25T02:48:11.269Z,1003.22
2018-04-25T02:49:11.222Z,1003.20
2018-04-25T02:50:11.177Z,1003.18
2018-04-25T02:51:11.132Z,1003.13
2018-04-25T02:52:11.092Z,1003.09
2018-04-25T02:53:11.045Z,1003.08
2018-04-25T02:54:10.994Z,1003.04
2018-04-25T02:55:10.948Z,1003.03
2018-04-25T02:56:10.903Z,1003.03
2018-04-25T02:57:10.859Z,1003.04
2018-04-25T02:58:10.811Z,1003.03
2018-04-25T02:59:10.772Z,1003.01
2018-04-25T03:00:10.719Z,1002.99
2018-04-25T03:01:10.672Z,1002.97
2018-04-25T03:02:10.627Z,1002.96
2018-04-25T03:03:10.582Z,1002.90
2018-04-25T03:04:10.534Z,1002.91
2018-04-25T03:05:10.489Z,1002.90
2018-04-25T03:06:10.443Z,1002.89
2018-04-25T03:07:10.398Z,1002.87
2018-04-25T03:08:10.351Z,1002.89
2018-04-25T03:09:10.308Z,1002.90
2018-04-25T03:10:10.259Z,1002.84
2018-04-25T03:11:10.213Z,1002.88
2018-04-25T03:12:10.166Z,1002.86
2018-04-25T03:13:10.121Z,1002.83
2018-04-25T03:14:10.075Z,1002.85
2018-04-25T03:15:10.029Z,1002.77
2018-04-25T03:16:09.982Z,1002.70
2018-04-25T03:17:09.936Z,1002.68
2018-04-25T03:18:09.891Z,1002.65
2018-04-25T03:19:09.845Z,1002.62
2018-04-25T03:20:09.798Z,1002.61
2018-04-25T03:21:09.752Z,1002.59
2018-04-25T03:22:09.706Z,1002.53
2018-04-25T03:23:09.660Z,1002.51
2018-04-25T03:24:09.614Z,1002.55
2018-04-25T03:25:09.568Z,1002.54
2018-04-25T03:26:09.521Z,1002.51
2018-04-25T03:27:09.476Z,1002.51
2018-04-25T03:28:09.429Z,1002.47
2018-04-25T03:29:09.383Z,1002.47
2018-04-25T03:30:09.338Z,1002.49
2018-04-25T03:31:09.291Z,1002.48
2018-04-25T03:32:09.245Z,1002.47
2018-04-25T03:33:09.199Z,1002.42
2018-04-25T03:34:09.153Z,1002.42
2018-04-25T03:35:09.119Z,1002.40
2018-04-25T03:36:09.061Z,1002.40
2018-04-25T03:37:09.015Z,1002.38
2018-04-25T03:38:08.969Z,1002.36
2018-04-25T03:39:08.923Z,1002.35
2018-04-25T03:40:08.877Z,1002.35
2018-04-25T03:41:08.956Z,1002.37
2018-04-25T03:42:08.789Z,1002.36
2018-04-25T03:43:08.739Z,1002.33
2018-04-25T03:44:08.697Z,1002.35
2018-04-25T03:45:08.650Z,1002.37
2018-04-25T03:46:08.601Z,1002.34
2018-04-25T03:47:08.556Z,1002.33
2018-04-25T03:48:08.508Z,1002.35
2018-04-25T03:49:08.463Z,1002.32
2018-04-25T03:50:08.417Z,1002.36
2018-04-25T03:51:08.375Z,1002.36
2018-04-25T03:52:08.325Z,1002.33
2018-04-25T03:53:08.279Z,1002.34
2018-04-25T03:54:08.234Z,1002.30
2018-04-25T03:55:08.187Z,1002.31
2018-04-25T03:56:08.142Z,1002.25
2018-04-25T03:57:08.094Z,1002.24
2018-04-25T03:58:08.049Z,1002.26
2018-04-25T03:59:08.021Z,1002.26
2018-04-25T04:00:07.956Z,1002.25
2018-04-25T04:01:07.910Z,1002.25
2018-04-25T04:02:07.868Z,1002.19
2018-04-25T04:03:07.819Z,1002.24
2018-04-25T04:04:07.772Z,1002.23
2018-04-25T04:05:07.727Z,1002.24
2018-04-25T04:06:07.681Z,1002.26
2018-04-25T04:07:07.640Z,1002.24
2018-04-25T04:08:07.589Z,1002.22
2018-04-25T04:09:07.543Z,1002.26
2018-04-25T04:10:07.498Z,1002.26
2018-04-25T04:11:07.452Z,1002.31
2018-04-25T04:12:07.406Z,1002.22
2018-04-25T04:13:07.360Z,1002.30
2018-04-25T04:14:07.315Z,1002.25
2018-04-25T04:15:07.275Z,1002.26
2018-04-25T04:16:07.222Z,1002.21
2018-04-25T04:17:07.177Z,1002.17
2018-04-25T04:18:07.131Z,1002.20
2018-04-25T04:19:07.088Z,1002.16
2018-04-25T04:20:07.039Z,1002.15
2018-04-25T04:21:06.994Z,1002.19
2018-04-25T04:22:06.948Z,1002.15
2018-04-25T04:23:06.955Z,1002.05
2018-04-25T04:24:06.855Z,1002.12
2018-04-25T04:25:06.813Z,1002.13
2018-04-25T04:26:06.765Z,1002.14
2018-04-25T04:27:06.720Z,1002.07
2018-04-25T04:28:06.674Z,1002.07
2018-04-25T04:29:06.631Z,1002.04
2018-04-25T04:30:06.583Z,1002.07
2018-04-25T04:31:06.538Z,1002.01
2018-04-25T04:32:06.490Z,1002.03
2018-04-25T04:33:06.444Z,1002.05
2018-04-25T04:34:06.399Z,1002.01
2018-04-25T04:35:06.354Z,1001.98
2018-04-25T04:36:06.307Z,1001.97
2018-04-25T04:37:06.262Z,1001.95
2018-04-25T04:38:06.223Z,1001.91
2018-04-25T04:39:06.171Z,1001.88
2018-04-25T04:40:06.124Z,1001.91
2018-04-25T04:41:06.078Z,1001.95
2018-04-25T04:42:06.033Z,1001.97
2018-04-25T04:43:06.063Z,1001.91
2018-04-25T04:44:05.946Z,1001.87
2018-04-25T04:45:05.896Z,1001.91
2018-04-25T04:46:05.850Z,1001.89
2018-04-25T04:47:05.805Z,1001.87
2018-04-25T04:48:05.759Z,1001.91
2018-04-25T04:49:05.718Z,1001.84
2018-04-25T04:50:05.674Z,1001.87
2018-04-25T04:51:05.623Z,1001.86
2018-04-25T04:52:05.576Z,1001.82
2018-04-25T04:53:05.531Z,1001.86
2018-04-25T04:54:05.486Z,1001.87
2018-04-25T04:55:05.440Z,1001.92
2018-04-25T04:56:05.394Z,1001.91
2018-04-25T04:57:05.349Z,1001.92
2018-04-25T04:58:05.303Z,1001.83
2018-04-25T04:59:05.257Z,1001.80
2018-04-25T05:00:05.213Z,1001.79
2018-04-25T05:01:05.172Z,1001.79
2018-04-25T05:02:05.121Z,1001.72
2018-04-25T05:03:05.075Z,1001.74
2018-04-25T05:04:05.033Z,1001.76
2018-04-25T05:05:04.984Z,1001.69
2018-04-25T05:06:04.938Z,1001.72
2018-04-25T05:07:04.893Z,1001.64
2018-04-25T05:08:04.847Z,1001.73
2018-04-25T05:09:04.801Z,1001.71
2018-04-25T05:10:04.757Z,1001.75
2018-04-25T05:11:04.711Z,1001.74
2018-04-25T05:12:04.664Z,1001.74
2018-04-25T05:13:04.693Z,1001.79
2018-04-25T05:14:04.574Z,1001.75
2018-04-25T05:15:04.529Z,1001.70
2018-04-25T05:16:04.485Z,1001.78
2018-04-25T05:17:04.437Z,1001.73
2018-04-25T05:18:04.492Z,1001.73
2018-04-25T05:19:04.351Z,1001.75
2018-04-25T05:20:04.303Z,1001.69
2018-04-25T05:21:04.256Z,1001.69
2018-04-25T05:22:04.217Z,1001.70
2018-04-25T05:23:04.173Z,1001.68
2018-04-25T05:24:04.124Z,1001.67
2018-04-25T05:25:04.096Z,1001.63
2018-04-25T05:26:04.030Z,1001.62
2018-04-25T05:27:03.984Z,1001.64
2018-04-25T05:28:03.939Z,1001.67
2018-04-25T05:29:03.894Z,1001.64
2018-04-25T05:30:03.851Z,1001.65
2018-04-25T05:31:03.804Z,1001.66
2018-04-25T05:32:03.796Z,1001.68
2018-04-25T05:33:03.717Z,1001.67
2018-04-25T05:34:03.668Z,1001.69
2018-04-25T05:35:03.623Z,1001.63
2018-04-25T05:36:03.577Z,1001.61
2018-04-25T05:37:03.533Z,1001.58
2018-04-25T05:38:03.487Z,1001.59
2018-04-25T05:39:03.442Z,1001.57
2018-04-25T05:40:03.397Z,1001.59
2018-04-25T05:41:03.352Z,1001.59
2018-04-25T05:42:03.306Z,1001.57
2018-04-25T05:43:03.262Z,1001.55
2018-04-25T05:44:03.215Z,1001.57
2018-04-25T05:45:03.171Z,1001.55
2018-04-25T05:46:03.138Z,1001.57
2018-04-25T05:47:03.080Z,1001.50
2018-04-25T05:48:03.034Z,1001.50
2018-04-25T05:49:02.989Z,1001.50
2018-04-25T05:50:02.945Z,1001.55
2018-04-25T05:51:02.900Z,1001.57
2018-04-25T05:52:02.853Z,1001.50
2018-04-25T05:53:02.808Z,1001.46
2018-04-25T05:54:02.795Z,1001.42
2018-04-25T05:55:02.718Z,1001.45
2018-04-25T05:56:02.671Z,1001.50
2018-04-25T05:57:02.629Z,1001.50
2018-04-25T05:58:02.582Z,1001.43
2018-04-25T05:59:02.537Z,1001.47
2018-04-25T06:00:02.492Z,1001.46
2018-04-25T06:01:02.445Z,1001.47
2018-04-25T06:02:02.402Z,1001.41
2018-04-25T06:03:02.355Z,1001.35
2018-04-25T06:04:02.308Z,1001.33
2018-04-25T06:05:02.272Z,1001.26
2018-04-25T06:06:02.219Z,1001.29
2018-04-25T06:07:02.186Z,1001.26
2018-04-25T06:08:02.128Z,1001.25
2018-04-25T06:09:02.083Z,1001.20
2018-04-25T06:10:02.038Z,1001.19
2018-04-25T06:11:01.992Z,1001.27
2018-04-25T06:12:01.953Z,1001.21
2018-04-25T06:13:01.906Z,1001.18
2018-04-25T06:14:01.861Z,1001.21
2018-04-25T06:15:01.812Z,1001.22
2018-04-25T06:16:01.767Z,1001.19
2018-04-25T06:17:01.721Z,1001.12
2018-04-25T06:18:01.677Z,1001.14
2018-04-25T06:19:01.631Z,1001.15
2018-04-25T06:20:01.586Z,1001.11
2018-04-25T06:21:01.542Z,1001.17
2018-04-25T06:22:01.497Z,1001.16
2018-04-25T06:23:01.452Z,1001.10
2018-04-25T06:24:01.407Z,1001.08
2018-04-25T06:25:01.362Z,1001.02
2018-04-25T06:26:01.316Z,1001.10
2018-04-25T06:27:01.273Z,1001.10
2018-04-25T06:28:01.225Z,1001.09
2018-04-25T06:29:01.181Z,1001.10
2018-04-25T06:30:01.137Z,1001.04
2018-04-25T06:31:01.090Z,1001.06
2018-04-25T06:32:01.049Z,1001.04
2018-04-25T06:33:01.000Z,1001.12
2018-04-25T06:34:00.956Z,1001.08
2018-04-25T06:35:00.910Z,1001.05
2018-04-25T06:36:00.865Z,1001.08
2018-04-25T06:37:00.821Z,1001.07
2018-04-25T06:38:00.776Z,1001.05
2018-04-25T06:39:00.735Z,1001.01
2018-04-25T06:40:00.686Z,1001.06
2018-04-25T06:41:00.641Z,1001.03
2018-04-25T06:42:00.595Z,1001.09
2018-04-25T06:43:00.551Z,1001.08
2018-04-25T06:44:00.506Z,1001.08
2018-04-25T06:45:00.549Z,1001.08
2018-04-25T06:46:00.419Z,1001.10
2018-04-25T06:47:00.375Z,1001.09
2018-04-25T06:48:00.325Z,1001.03
2018-04-25T06:49:00.279Z,1001.08
2018-04-25T06:50:00.245Z,1001.04
2018-04-25T06:51:00.191Z,1001.01
2018-04-25T06:52:00.145Z,1001.04
2018-04-25T06:53:00.101Z,1001.00
2018-04-25T06:54:00.057Z,1000.98
2018-04-25T06:55:00.015Z,1000.99
2018-04-25T06:55:59.966Z,1001.01
2018-04-25T06:56:59.921Z,1001.05
2018-04-25T06:57:59.876Z,1001.01
2018-04-25T06:58:59.833Z,1001.11
2018-04-25T06:59:59.787Z,1001.12
2018-04-25T07:00:59.742Z,1001.12
2018-04-25T07:01:59.698Z,1001.06
2018-04-25T07:02:59.655Z,1001.07
2018-04-25T07:03:59.608Z,1001.03
2018-04-25T07:04:59.564Z,1001.06
2018-04-25T07:05:59.519Z,1001.09
2018-04-25T07:06:59.474Z,1001.16
2018-04-25T07:07:59.442Z,1001.09
2018-04-25T07:08:59.384Z,1001.04
2018-04-25T07:09:59.339Z,1000.96
2018-04-25T07:10:59.295Z,1000.95
2018-04-25T07:11:59.251Z,1001.01
2018-04-25T07:12:59.210Z,1000.97
2018-04-25T07:13:59.219Z,1000.92
2018-04-25T07:14:59.115Z,1000.88
2018-04-25T07:15:59.071Z,1000.89
2018-04-25T07:16:59.026Z,1000.85
2018-04-25T07:17:58.982Z,1000.85
2018-04-25T07:18:58.938Z,1000.84
2018-04-25T07:19:58.892Z,1000.87
2018-04-25T07:20:58.849Z,1000.84
2018-04-25T07:21:58.802Z,1000.83
2018-04-25T07:22:58.759Z,1000.86
2018-04-25T07:23:58.713Z,1000.84
2018-04-25T07:24:58.669Z,1000.86
2018-04-25T07:25:58.625Z,1000.93
2018-04-25T07:26:58.580Z,1000.92
2018-04-25T07:27:58.534Z,1000.89
2018-04-25T07:28:58.493Z,1000.95
2018-04-25T07:29:58.445Z,1000.97
2018-04-25T07:30:58.402Z,1000.88
2018-04-25T07:31:58.362Z,1000.94
2018-04-25T07:32:58.320Z,1000.91
2018-04-25T07:33:58.267Z,1000.94
2018-04-25T07:34:58.223Z,1000.90
2018-04-25T07:35:58.177Z,1000.93
2018-04-25T07:36:58.132Z,1000.87
2018-04-25T07:37:58.094Z,1000.84
2018-04-25T07:38:58.144Z,1000.88
2018-04-25T07:39:57.998Z,1000.81
2018-04-25T07:40:57.953Z,1000.88
2018-04-25T07:41:57.977Z,1000.82
2018-04-25T07:42:57.864Z,1000.89
2018-04-25T07:43:57.868Z,1000.83
2018-04-25T07:44:57.776Z,1000.86
2018-04-25T07:45:57.730Z,1000.83
2018-04-25T07:46:57.686Z,1000.84
2018-04-25T07:47:57.642Z,1000.86
2018-04-25T07:48:57.596Z,1000.80
2018-04-25T07:49:57.551Z,1000.77
2018-04-25T07:50:57.508Z,1000.83
2018-04-25T07:51:57.466Z,1000.77
2018-04-25T07:52:57.419Z,1000.79
2018-04-25T07:53:57.374Z,1000.81
2018-04-25T07:54:57.329Z,1000.83
2018-04-25T07:55:57.283Z,1000.81
2018-04-25T07:56:57.241Z,1000.78
2018-04-25T07:57:57.194Z,1000.78
2018-04-25T07:58:57.148Z,1000.77
2018-04-25T07:59:57.105Z,1000.80
2018-04-25T08:00:57.060Z,1000.80
2018-04-25T08:01:57.016Z,1000.81
2018-04-25T08:02:56.975Z,1000.75
2018-04-25T08:03:56.927Z,1000.66
2018-04-25T08:04:56.882Z,1000.79
2018-04-25T08:05:56.854Z,1000.74
2018-04-25T08:06:56.794Z,1000.75
2018-04-25T08:07:56.748Z,1000.74
2018-04-25T08:08:56.705Z,1000.80
2018-04-25T08:09:56.662Z,1000.84
2018-04-25T08:10:56.615Z,1000.82
2018-04-25T08:11:56.570Z,1000.91
2018-04-25T08:12:56.526Z,1000.92
2018-04-25T08:13:56.482Z,1001.03
2018-04-25T08:14:56.438Z,1001.05
2018-04-25T08:15:56.393Z,1001.07
2018-04-25T08:16:56.351Z,1000.98
2018-04-25T08:17:56.356Z,1000.94
2018-04-25T08:18:56.262Z,1000.89
2018-04-25T08:19:56.217Z,1000.86
2018-04-25T08:20:56.178Z,1000.92
2018-04-25T08:21:56.131Z,1000.98
2018-04-25T08:22:56.088Z,1000.92
2018-04-25T08:23:56.093Z,1000.90
2018-04-25T08:24:56.000Z,1000.87
2018-04-25T08:25:55.957Z,1000.90
2018-04-25T08:26:55.914Z,1000.76
2018-04-25T08:27:55.870Z,1000.81
2018-04-25T08:28:55.827Z,1000.80
2018-04-25T08:29:55.788Z,1000.74
2018-04-25T08:30:55.747Z,1000.67
2018-04-25T08:31:55.698Z,1000.70
2018-04-25T08:32:55.655Z,1000.81
2018-04-25T08:33:55.613Z,1000.79
2018-04-25T08:34:55.580Z,1000.75
2018-04-25T08:35:55.526Z,1000.77
2018-04-25T08:36:55.487Z,1000.71
2018-04-25T08:37:55.441Z,1000.78
2018-04-25T08:38:55.398Z,1000.70
2018-04-25T08:39:55.359Z,1000.78
2018-04-25T08:40:55.317Z,1000.76
2018-04-25T08:41:55.269Z,1000.76
2018-04-25T08:42:55.226Z,1000.75
2018-04-25T08:43:55.182Z,1000.74
2018-04-25T08:44:55.169Z,1000.72
2018-04-25T08:45:55.097Z,1000.77
2018-04-25T08:46:55.053Z,1000.75
2018-04-25T08:47:55.008Z,1000.78
2018-04-25T08:48:54.966Z,1000.73
2018-04-25T08:49:54.922Z,1000.72
2018-04-25T08:50:54.880Z,1000.73
2018-04-25T08:51:54.837Z,1000.72
2018-04-25T08:52:54.793Z,1000.75
2018-04-25T08:53:54.751Z,1000.80
2018-04-25T08:54:54.707Z,1000.78
2018-04-25T08:55:54.664Z,1000.93
2018-04-25T08:56:54.621Z,1000.96
2018-04-25T08:57:54.579Z,1001.04
2018-04-25T08:58:54.535Z,1000.89
2018-04-25T08:59:54.500Z,1000.95
2018-04-25T09:00:54.448Z,1000.99
2018-04-25T09:01:54.406Z,1001.02
2018-04-25T09:02:54.363Z,1001.09
2018-04-25T09:03:54.320Z,1001.13
2018-04-25T09:04:54.278Z,1001.14
2018-04-25T09:05:54.261Z,1000.98
2018-04-25T09:06:54.195Z,1000.86
2018-04-25T09:07:54.153Z,1000.86
2018-04-25T09:08:54.112Z,1000.86
2018-04-25T09:09:54.072Z,1000.90
2018-04-25T09:10:54.030Z,1000.81
2018-04-25T09:11:53.990Z,1000.78
2018-04-25T09:12:53.949Z,1000.74
2018-04-25T09:13:53.912Z,1000.81
2018-04-25T09:14:53.870Z,1000.94
2018-04-25T09:15:53.833Z,1000.90
2018-04-25T09:16:53.789Z,1000.88
2018-04-25T09:17:53.799Z,1000.90
2018-04-25T09:18:53.710Z,1000.97
2018-04-25T09:19:53.670Z,1000.96
2018-04-25T09:20:53.631Z,1000.93
2018-04-25T09:21:53.593Z,1000.80
2018-04-25T09:22:53.555Z,1000.61
2018-04-25T09:23:53.518Z,1000.50
2018-04-25T09:24:53.480Z,1000.45
2018-04-25T09:25:53.446Z,1000.61
2018-04-25T09:26:53.408Z,1000.65
2018-04-25T09:27:53.371Z,1000.76
2018-04-25T09:28:53.337Z,1001.03
2018-04-25T09:29:53.301Z,1000.77
2018-04-25T09:30:53.263Z,1000.73
2018-04-25T09:31:53.232Z,1000.64
2018-04-25T09:32:53.192Z,1000.85
2018-04-25T09:33:53.159Z,1000.53
2018-04-25T09:34:53.122Z,1000.49
2018-04-25T09:35:53.089Z,1000.52
2018-04-25T09:36:53.051Z,1000.54
2018-04-25T09:37:53.016Z,1000.61
2018-04-25T09:38:52.986Z,1000.59
2018-04-25T09:39:52.946Z,1000.61
2018-04-25T09:40:52.911Z,1000.47
2018-04-25T09:41:52.875Z,1000.45
2018-04-25T09:42:52.840Z,1000.34
2018-04-25T09:43:52.804Z,1000.35
2018-04-25T09:44:52.768Z,1000.37
2018-04-25T09:45:52.800Z,1000.30
2018-04-25T09:46:52.697Z,1000.25
2018-04-25T09:47:52.710Z,1000.24
2018-04-25T09:48:52.622Z,1000.26
2018-04-25T09:49:52.595Z,1000.26
2018-04-25T09:50:52.550Z,1000.16
2018-04-25T09:51:52.534Z,1000.15
2018-04-25T09:52:52.475Z,1000.26
2018-04-25T09:53:52.437Z,1000.31
2018-04-25T09:54:52.401Z,1000.25
2018-04-25T09:55:52.361Z,1000.35
2018-04-25T09:56:52.325Z,1000.26
2018-04-25T09:57:52.375Z,1000.15
2018-04-25T09:58:52.247Z,1000.12
2018-04-25T09:59:52.215Z,1000.06
2018-04-25T10:00:52.173Z,1000.14
2018-04-25T10:01:52.134Z,1000.13
2018-04-25T10:02:52.096Z,1000.12
2018-04-25T10:03:52.060Z,1000.17
2018-04-25T10:04:52.022Z,1000.13
2018-04-25T10:05:51.981Z,1000.08
2018-04-25T10:06:51.944Z,1000.14
2018-04-25T10:07:51.904Z,1000.25
2018-04-25T10:08:51.864Z,1000.31
2018-04-25T10:09:51.828Z,1000.19
2018-04-25T10:10:51.848Z,1000.37
2018-04-25T10:11:51.750Z,1000.32
2018-04-25T10:12:51.711Z,1000.30
2018-04-25T10:13:51.674Z,1000.29
2018-04-25T10:14:51.638Z,1000.15
2018-04-25T10:15:51.596Z,1000.15
2018-04-25T10:16:51.561Z,1000.11
2018-04-25T10:17:51.520Z,1000.07
2018-04-25T10:18:51.481Z,1000.12
2018-04-25T10:19:51.443Z,1000.01
2018-04-25T10:20:51.406Z,999.94
2018-04-25T10:21:51.366Z,1000.15
2018-04-25T10:22:51.328Z,1000.09
2018-04-25T10:23:51.288Z,1000.16
2018-04-25T10:24:51.251Z,1000.01
2018-04-25T10:25:51.212Z,999.95
2018-04-25T10:26:51.174Z,1000.05
2018-04-25T10:27:51.135Z,999.99
2018-04-25T10:28:51.096Z,1000.00
2018-04-25T10:29:51.062Z,1000.08
2018-04-25T10:30:51.019Z,999.95
2018-04-25T10:31:50.980Z,999.92
2018-04-25T10:32:50.941Z,999.73
2018-04-25T10:33:50.902Z,999.76
2018-04-25T10:34:50.863Z,999.81
2018-04-25T10:35:50.824Z,999.82
2018-04-25T10:36:50.784Z,999.75
2018-04-25T10:37:50.745Z,999.68
2018-04-25T10:38:50.710Z,999.68
2018-04-25T10:39:50.666Z,999.68
2018-04-25T10:40:50.627Z,999.81
2018-04-25T10:41:50.587Z,999.75
2018-04-25T10:42:50.547Z,999.71
2018-04-25T10:43:50.506Z,999.81
2018-04-25T10:44:50.464Z,999.78
2018-04-25T10:45:50.425Z,999.78
2018-04-25T10:46:50.385Z,999.84
2018-04-25T10:47:50.343Z,999.88
2018-04-25T10:48:50.303Z,999.81
2018-04-25T10:49:50.262Z,999.87
2018-04-25T10:50:50.222Z,999.92
2018-04-25T10:51:50.181Z,999.84
2018-04-25T10:52:50.139Z,999.78
2018-04-25T10:53:50.100Z,999.71
2018-04-25T10:54:50.058Z,999.64
2018-04-25T10:55:50.016Z,999.67
2018-04-25T10:56:49.974Z,999.68
2018-04-25T10:57:49.934Z,999.72
2018-04-25T10:58:49.893Z,999.75
2018-04-25T10:59:49.852Z,999.76
2018-04-25T11:00:49.811Z,999.78
2018-04-25T11:01:49.770Z,999.89
2018-04-25T11:02:49.728Z,1000.00
2018-04-25T11:03:49.689Z,1000.08
2018-04-25T11:04:49.645Z,1000.22
2018-04-25T11:05:49.604Z,1000.36
2018-04-25T11:06:49.562Z,1000.42
2018-04-25T11:07:49.520Z,1000.57
2018-04-25T11:08:49.478Z,1000.63
2018-04-25T11:09:49.436Z,1000.61
2018-04-25T11:10:49.395Z,1000.72
2018-04-25T11:11:49.352Z,1000.81
2018-04-25T11:12:49.357Z,1000.84
2018-04-25T11:13:49.275Z,1000.93
2018-04-25T11:14:49.227Z,1000.94
2018-04-25T11:15:49.193Z,1000.86
2018-04-25T11:16:49.144Z,1000.91
2018-04-25T11:17:49.108Z,1000.88
2018-04-25T11:18:49.062Z,1000.90
2018-04-25T11:19:49.014Z,1000.85
2018-04-25T11:20:48.974Z,1000.87
2018-04-25T11:21:48.933Z,1000.90
2018-04-25T11:22:48.887Z,1001.00
2018-04-25T11:23:48.843Z,1000.95
2018-04-25T11:24:48.802Z,1001.04
2018-04-25T11:25:48.759Z,1000.99
2018-04-25T11:26:48.721Z,1000.99
2018-04-25T11:27:48.673Z,1000.91
2018-04-25T11:28:48.631Z,1000.90
2018-04-25T11:29:48.589Z,1001.00
2018-04-25T11:30:48.549Z,1000.97
2018-04-25T11:31:48.575Z,1000.79
2018-04-25T11:32:48.460Z,1000.87
2018-04-25T11:33:48.416Z,1000.86
2018-04-25T11:34:48.374Z,1000.79
2018-04-25T11:35:48.331Z,1000.80
2018-04-25T11:36:48.287Z,1000.80
2018-04-25T11:37:48.243Z,1000.75
2018-04-25T11:38:48.202Z,1000.86
2018-04-25T11:39:48.158Z,1000.84
2018-04-25T11:40:48.165Z,1000.81
2018-04-25T11:41:48.072Z,1000.70
2018-04-25T11:42:48.031Z,1000.74
2018-04-25T11:43:47.986Z,1000.87
2018-04-25T11:44:48.023Z,1000.88
2018-04-25T11:45:47.899Z,1000.77
2018-04-25T11:46:47.858Z,1000.59
2018-04-25T11:47:47.813Z,1000.60
2018-04-25T11:48:47.772Z,1000.63
2018-04-25T11:49:47.734Z,1000.66
2018-04-25T11:50:47.687Z,1000.73
2018-04-25T11:51:47.645Z,1000.67
2018-04-25T11:52:47.602Z,1000.78
2018-04-25T11:53:47.560Z,1000.83
2018-04-25T11:54:47.516Z,1000.84
2018-04-25T11:55:47.472Z,1000.65
2018-04-25T11:56:47.430Z,1000.65
2018-04-25T11:57:47.388Z,1000.72
2018-04-25T11:58:47.346Z,1000.64
2018-04-25T11:59:47.304Z,1000.65
2018-04-25T12:00:47.259Z,1000.67
2018-04-25T12:01:47.218Z,1000.73
2018-04-25T12:02:47.230Z,1000.65
2018-04-25T12:03:47.133Z,1000.69
2018-04-25T12:04:47.089Z,1000.69
2018-04-25T12:05:47.048Z,1000.74